sensor_id;sensor_type;location;lat;lon;timestamp;temperature;humidity
4687;DHT22;2357;47.316;-1.348;2023-04-07T00:00:24;10.80;99.90
4687;DHT22;2357;47.316;-1.348;2023-04-07T00:02:51;10.90;99.90
4687;DHT22;2357;47.316;-1.348;2023-04-07T00:05:16;10.80;99.90
4687;DHT22;2357;47.316;-1.348;2023-04-07T00:07:42;10.90;99.90
4687;DHT22;2357;47.316;-1.348;2023-04-07T00:10:08;10.80;99.90
4687;DHT22;2357;47.316;-1.348;2023-04-07T00:12:34;10.80;99.90
4687;DHT22;2357;47.316;-1.348;2023-04-07T00:15:00;10.70;99.90
4687;DHT22;2357;47.316;-1.348;2023-04-07T00:17:26;10.60;99.90
4687;DHT22;2357;47.316;-1.348;2023-04-07T00:19:51;10.50;99.90
4687;DHT22;2357;47.316;-1.348;2023-04-07T00:22:17;10.40;99.90
4687;DHT22;2357;47.316;-1.348;2023-04-07T00:24:43;10.50;99.90
4687;DHT22;2357;47.316;-1.348;2023-04-07T00:27:09;10.40;99.90
4687;DHT22;2357;47.316;-1.348;2023-04-07T00:29:34;10.10;99.90
4687;DHT22;2357;47.316;-1.348;2023-04-07T00:32:00;10.00;99.90
4687;DHT22;2357;47.316;-1.348;2023-04-07T00:34:26;10.00;99.90
4687;DHT22;2357;47.316;-1.348;2023-04-07T00:36:51;9.90;99.90
4687;DHT22;2357;47.316;-1.348;2023-04-07T00:39:18;9.70;99.90
4687;DHT22;2357;47.316;-1.348;2023-04-07T00:41:44;9.80;99.90
4687;DHT22;2357;47.316;-1.348;2023-04-07T00:44:10;9.80;99.90
4687;DHT22;2357;47.316;-1.348;2023-04-07T00:46:36;9.80;99.90
4687;DHT22;2357;47.316;-1.348;2023-04-07T00:49:02;9.80;99.90
4687;DHT22;2357;47.316;-1.348;2023-04-07T00:51:28;9.80;99.90
4687;DHT22;2357;47.316;-1.348;2023-04-07T00:53:53;9.80;99.90
4687;DHT22;2357;47.316;-1.348;2023-04-07T00:56:19;9.70;99.90
4687;DHT22;2357;47.316;-1.348;2023-04-07T00:58:45;9.70;99.90
4687;DHT22;2357;47.316;-1.348;2023-04-07T01:01:31;9.60;99.90
4687;DHT22;2357;47.316;-1.348;2023-04-07T01:04:17;9.70;99.90
4687;DHT22;2357;47.316;-1.348;2023-04-07T01:06:49;9.60;99.90
4687;DHT22;2357;47.316;-1.348;2023-04-07T01:09:20;9.60;99.90
4687;DHT22;2357;47.316;-1.348;2023-04-07T01:14:59;9.50;99.90
4687;DHT22;2357;47.316;-1.348;2023-04-07T01:17:27;9.40;99.90
4687;DHT22;2357;47.316;-1.348;2023-04-07T01:20:02;9.50;99.90
4687;DHT22;2357;47.316;-1.348;2023-04-07T01:22:40;9.40;99.90
4687;DHT22;2357;47.316;-1.348;2023-04-07T01:25:25;9.50;99.90
4687;DHT22;2357;47.316;-1.348;2023-04-07T01:28:27;9.50;99.90
4687;DHT22;2357;47.316;-1.348;2023-04-07T01:30:59;9.50;99.90
4687;DHT22;2357;47.316;-1.348;2023-04-07T01:33:28;9.50;99.90
4687;DHT22;2357;47.316;-1.348;2023-04-07T01:35:59;9.50;99.90
4687;DHT22;2357;47.316;-1.348;2023-04-07T01:38:27;9.40;99.90
4687;DHT22;2357;47.316;-1.348;2023-04-07T01:40:54;9.40;99.90
4687;DHT22;2357;47.316;-1.348;2023-04-07T01:43:22;9.40;99.90
4687;DHT22;2357;47.316;-1.348;2023-04-07T01:45:48;9.30;99.90
4687;DHT22;2357;47.316;-1.348;2023-04-07T01:48:14;9.40;99.90
4687;DHT22;2357;47.316;-1.348;2023-04-07T01:50:42;9.20;99.90
4687;DHT22;2357;47.316;-1.348;2023-04-07T01:53:08;9.30;99.90
4687;DHT22;2357;47.316;-1.348;2023-04-07T01:55:36;9.40;99.90
4687;DHT22;2357;47.316;-1.348;2023-04-07T01:58:05;9.30;99.90
4687;DHT22;2357;47.316;-1.348;2023-04-07T02:00:31;9.30;99.90
4687;DHT22;2357;47.316;-1.348;2023-04-07T02:03:04;9.20;99.90
4687;DHT22;2357;47.316;-1.348;2023-04-07T02:05:34;9.30;99.90
4687;DHT22;2357;47.316;-1.348;2023-04-07T02:08:04;9.20;99.90
4687;DHT22;2357;47.316;-1.348;2023-04-07T02:10:32;9.30;99.90
4687;DHT22;2357;47.316;-1.348;2023-04-07T02:13:00;9.30;99.90
4687;DHT22;2357;47.316;-1.348;2023-04-07T02:15:29;9.20;99.90
4687;DHT22;2357;47.316;-1.348;2023-04-07T02:17:57;9.20;99.90
4687;DHT22;2357;47.316;-1.348;2023-04-07T02:20:24;9.20;99.90
4687;DHT22;2357;47.316;-1.348;2023-04-07T02:22:50;9.20;99.90
4687;DHT22;2357;47.316;-1.348;2023-04-07T02:25:29;9.20;99.90
4687;DHT22;2357;47.316;-1.348;2023-04-07T02:27:56;9.20;99.90
4687;DHT22;2357;47.316;-1.348;2023-04-07T02:30:22;9.20;99.90
4687;DHT22;2357;47.316;-1.348;2023-04-07T02:32:48;9.10;99.90
4687;DHT22;2357;47.316;-1.348;2023-04-07T02:35:14;9.00;99.90
4687;DHT22;2357;47.316;-1.348;2023-04-07T02:37:41;8.90;99.90
4687;DHT22;2357;47.316;-1.348;2023-04-07T02:40:07;8.90;99.90
4687;DHT22;2357;47.316;-1.348;2023-04-07T02:42:33;8.90;99.90
4687;DHT22;2357;47.316;-1.348;2023-04-07T02:44:59;8.80;99.90
4687;DHT22;2357;47.316;-1.348;2023-04-07T02:47:25;8.80;99.90
4687;DHT22;2357;47.316;-1.348;2023-04-07T02:49:51;8.80;99.90
4687;DHT22;2357;47.316;-1.348;2023-04-07T02:52:16;8.70;99.90
4687;DHT22;2357;47.316;-1.348;2023-04-07T02:54:42;8.50;99.90
4687;DHT22;2357;47.316;-1.348;2023-04-07T02:57:08;8.60;99.90
4687;DHT22;2357;47.316;-1.348;2023-04-07T02:59:34;8.40;99.90
4687;DHT22;2357;47.316;-1.348;2023-04-07T03:01:59;8.20;99.90
4687;DHT22;2357;47.316;-1.348;2023-04-07T03:04:25;8.00;99.90
4687;DHT22;2357;47.316;-1.348;2023-04-07T03:06:51;7.70;99.90
4687;DHT22;2357;47.316;-1.348;2023-04-07T03:09:17;7.70;99.90
4687;DHT22;2357;47.316;-1.348;2023-04-07T03:11:43;7.60;99.90
4687;DHT22;2357;47.316;-1.348;2023-04-07T03:14:08;7.70;99.90
4687;DHT22;2357;47.316;-1.348;2023-04-07T03:16:34;7.50;99.90
4687;DHT22;2357;47.316;-1.348;2023-04-07T03:19:00;7.30;99.90
4687;DHT22;2357;47.316;-1.348;2023-04-07T03:21:25;7.40;99.90
4687;DHT22;2357;47.316;-1.348;2023-04-07T03:23:53;7.30;99.90
4687;DHT22;2357;47.316;-1.348;2023-04-07T03:26:19;7.30;99.90
4687;DHT22;2357;47.316;-1.348;2023-04-07T03:28:44;7.00;99.90
4687;DHT22;2357;47.316;-1.348;2023-04-07T03:31:10;7.00;99.90
4687;DHT22;2357;47.316;-1.348;2023-04-07T03:33:36;6.90;99.90
4687;DHT22;2357;47.316;-1.348;2023-04-07T03:36:01;6.80;99.90
4687;DHT22;2357;47.316;-1.348;2023-04-07T03:38:27;7.00;99.90
4687;DHT22;2357;47.316;-1.348;2023-04-07T03:40:53;7.10;99.90
4687;DHT22;2357;47.316;-1.348;2023-04-07T03:43:18;7.20;99.90
4687;DHT22;2357;47.316;-1.348;2023-04-07T03:45:44;7.30;99.90
4687;DHT22;2357;47.316;-1.348;2023-04-07T03:48:11;7.50;99.90
4687;DHT22;2357;47.316;-1.348;2023-04-07T03:50:40;7.50;99.90
4687;DHT22;2357;47.316;-1.348;2023-04-07T03:53:06;7.60;99.90
4687;DHT22;2357;47.316;-1.348;2023-04-07T03:55:32;7.80;99.90
4687;DHT22;2357;47.316;-1.348;2023-04-07T03:57:58;7.80;99.90
4687;DHT22;2357;47.316;-1.348;2023-04-07T04:00:24;7.80;99.90
4687;DHT22;2357;47.316;-1.348;2023-04-07T04:02:51;7.90;99.90
4687;DHT22;2357;47.316;-1.348;2023-04-07T04:05:17;8.00;99.90
4687;DHT22;2357;47.316;-1.348;2023-04-07T04:07:42;7.90;99.90
4687;DHT22;2357;47.316;-1.348;2023-04-07T04:10:08;7.90;99.90
4687;DHT22;2357;47.316;-1.348;2023-04-07T04:12:34;7.60;99.90
4687;DHT22;2357;47.316;-1.348;2023-04-07T04:14:59;7.10;99.90
4687;DHT22;2357;47.316;-1.348;2023-04-07T04:17:25;6.90;99.90
4687;DHT22;2357;47.316;-1.348;2023-04-07T04:19:51;6.80;99.90
4687;DHT22;2357;47.316;-1.348;2023-04-07T04:22:17;6.70;99.90
4687;DHT22;2357;47.316;-1.348;2023-04-07T04:24:42;6.60;99.90
4687;DHT22;2357;47.316;-1.348;2023-04-07T04:27:08;7.00;99.90
4687;DHT22;2357;47.316;-1.348;2023-04-07T04:29:34;7.30;99.90
4687;DHT22;2357;47.316;-1.348;2023-04-07T04:31:59;7.40;99.90
4687;DHT22;2357;47.316;-1.348;2023-04-07T04:34:25;7.60;99.90
4687;DHT22;2357;47.316;-1.348;2023-04-07T04:36:52;7.60;99.90
4687;DHT22;2357;47.316;-1.348;2023-04-07T04:39:17;7.70;99.90
4687;DHT22;2357;47.316;-1.348;2023-04-07T04:41:44;7.60;99.90
4687;DHT22;2357;47.316;-1.348;2023-04-07T04:44:09;7.70;99.90
4687;DHT22;2357;47.316;-1.348;2023-04-07T04:46:35;7.70;99.90
4687;DHT22;2357;47.316;-1.348;2023-04-07T04:49:01;7.60;99.90
4687;DHT22;2357;47.316;-1.348;2023-04-07T04:51:27;7.70;99.90
4687;DHT22;2357;47.316;-1.348;2023-04-07T04:53:52;7.70;99.90
4687;DHT22;2357;47.316;-1.348;2023-04-07T04:56:18;7.60;99.90
4687;DHT22;2357;47.316;-1.348;2023-04-07T04:58:44;7.60;99.90
4687;DHT22;2357;47.316;-1.348;2023-04-07T05:01:12;7.60;99.90
4687;DHT22;2357;47.316;-1.348;2023-04-07T05:03:38;7.50;99.90
4687;DHT22;2357;47.316;-1.348;2023-04-07T05:06:04;7.50;99.90
4687;DHT22;2357;47.316;-1.348;2023-04-07T05:08:30;7.60;99.90
4687;DHT22;2357;47.316;-1.348;2023-04-07T05:10:56;7.50;99.90
4687;DHT22;2357;47.316;-1.348;2023-04-07T05:13:22;7.60;99.90
4687;DHT22;2357;47.316;-1.348;2023-04-07T05:15:47;7.60;99.90
4687;DHT22;2357;47.316;-1.348;2023-04-07T05:18:13;7.70;99.90
4687;DHT22;2357;47.316;-1.348;2023-04-07T05:20:39;7.70;99.90
4687;DHT22;2357;47.316;-1.348;2023-04-07T05:23:05;7.80;99.90
4687;DHT22;2357;47.316;-1.348;2023-04-07T05:25:31;7.80;99.90
4687;DHT22;2357;47.316;-1.348;2023-04-07T05:27:57;7.80;99.90
4687;DHT22;2357;47.316;-1.348;2023-04-07T05:30:24;7.80;99.90
4687;DHT22;2357;47.316;-1.348;2023-04-07T05:32:50;7.60;99.90
4687;DHT22;2357;47.316;-1.348;2023-04-07T05:35:16;7.60;99.90
4687;DHT22;2357;47.316;-1.348;2023-04-07T05:37:42;7.70;99.90
4687;DHT22;2357;47.316;-1.348;2023-04-07T05:40:07;7.80;99.90
4687;DHT22;2357;47.316;-1.348;2023-04-07T05:42:33;7.90;99.90
4687;DHT22;2357;47.316;-1.348;2023-04-07T05:44:59;7.90;99.90
4687;DHT22;2357;47.316;-1.348;2023-04-07T05:47:25;7.80;99.90
4687;DHT22;2357;47.316;-1.348;2023-04-07T05:49:50;7.90;99.90
4687;DHT22;2357;47.316;-1.348;2023-04-07T05:52:16;7.90;99.90
4687;DHT22;2357;47.316;-1.348;2023-04-07T05:54:42;8.00;99.90
4687;DHT22;2357;47.316;-1.348;2023-04-07T05:57:08;8.00;99.90
4687;DHT22;2357;47.316;-1.348;2023-04-07T05:59:34;8.10;99.90
4687;DHT22;2357;47.316;-1.348;2023-04-07T06:02:01;8.10;99.90
4687;DHT22;2357;47.316;-1.348;2023-04-07T06:04:27;8.20;99.90
4687;DHT22;2357;47.316;-1.348;2023-04-07T06:06:52;8.20;99.90
4687;DHT22;2357;47.316;-1.348;2023-04-07T06:09:20;8.30;99.90
4687;DHT22;2357;47.316;-1.348;2023-04-07T06:11:46;8.20;99.90
4687;DHT22;2357;47.316;-1.348;2023-04-07T06:14:12;8.30;99.90
4687;DHT22;2357;47.316;-1.348;2023-04-07T06:16:38;8.20;99.90
4687;DHT22;2357;47.316;-1.348;2023-04-07T06:19:03;8.20;99.90
4687;DHT22;2357;47.316;-1.348;2023-04-07T06:21:29;8.30;99.90
4687;DHT22;2357;47.316;-1.348;2023-04-07T06:23:55;8.30;99.90
4687;DHT22;2357;47.316;-1.348;2023-04-07T06:26:21;8.30;99.90
4687;DHT22;2357;47.316;-1.348;2023-04-07T06:28:48;8.30;99.90
4687;DHT22;2357;47.316;-1.348;2023-04-07T06:31:13;8.40;99.90
4687;DHT22;2357;47.316;-1.348;2023-04-07T06:33:39;8.40;99.90
4687;DHT22;2357;47.316;-1.348;2023-04-07T06:36:05;8.40;99.90
4687;DHT22;2357;47.316;-1.348;2023-04-07T06:38:30;8.40;99.90
4687;DHT22;2357;47.316;-1.348;2023-04-07T06:40:56;8.50;99.90
4687;DHT22;2357;47.316;-1.348;2023-04-07T06:43:22;8.50;99.90
4687;DHT22;2357;47.316;-1.348;2023-04-07T06:45:47;8.50;99.90
4687;DHT22;2357;47.316;-1.348;2023-04-07T06:48:13;8.60;99.90
4687;DHT22;2357;47.316;-1.348;2023-04-07T06:50:39;8.50;99.90
4687;DHT22;2357;47.316;-1.348;2023-04-07T06:53:04;8.60;99.90
4687;DHT22;2357;47.316;-1.348;2023-04-07T06:55:30;8.70;99.90
4687;DHT22;2357;47.316;-1.348;2023-04-07T06:57:56;8.70;99.90
4687;DHT22;2357;47.316;-1.348;2023-04-07T07:00:21;8.70;99.90
4687;DHT22;2357;47.316;-1.348;2023-04-07T07:02:48;8.70;99.90
4687;DHT22;2357;47.316;-1.348;2023-04-07T07:05:14;8.60;99.90
4687;DHT22;2357;47.316;-1.348;2023-04-07T07:07:39;8.50;99.90
4687;DHT22;2357;47.316;-1.348;2023-04-07T07:10:07;8.50;99.90
4687;DHT22;2357;47.316;-1.348;2023-04-07T07:12:33;8.60;99.90
4687;DHT22;2357;47.316;-1.348;2023-04-07T07:14:58;8.60;99.90
4687;DHT22;2357;47.316;-1.348;2023-04-07T07:17:24;8.60;99.90
4687;DHT22;2357;47.316;-1.348;2023-04-07T07:19:50;8.60;99.90
4687;DHT22;2357;47.316;-1.348;2023-04-07T07:22:16;8.70;99.90
4687;DHT22;2357;47.316;-1.348;2023-04-07T07:24:41;8.70;99.90
4687;DHT22;2357;47.316;-1.348;2023-04-07T07:27:07;8.60;99.90
4687;DHT22;2357;47.316;-1.348;2023-04-07T07:29:33;8.70;99.90
4687;DHT22;2357;47.316;-1.348;2023-04-07T07:31:58;8.80;99.90
4687;DHT22;2357;47.316;-1.348;2023-04-07T07:34:24;8.70;99.90
4687;DHT22;2357;47.316;-1.348;2023-04-07T07:36:50;8.80;99.90
4687;DHT22;2357;47.316;-1.348;2023-04-07T07:39:15;8.90;99.90
4687;DHT22;2357;47.316;-1.348;2023-04-07T07:41:41;9.00;99.90
4687;DHT22;2357;47.316;-1.348;2023-04-07T07:44:07;9.00;99.90
4687;DHT22;2357;47.316;-1.348;2023-04-07T07:46:32;9.10;99.90
4687;DHT22;2357;47.316;-1.348;2023-04-07T07:48:58;9.00;99.90
4687;DHT22;2357;47.316;-1.348;2023-04-07T07:51:23;9.20;99.90
4687;DHT22;2357;47.316;-1.348;2023-04-07T07:53:49;9.20;99.90
4687;DHT22;2357;47.316;-1.348;2023-04-07T07:56:15;9.20;99.90
4687;DHT22;2357;47.316;-1.348;2023-04-07T07:58:40;9.30;99.90
4687;DHT22;2357;47.316;-1.348;2023-04-07T08:01:06;9.30;99.90
4687;DHT22;2357;47.316;-1.348;2023-04-07T08:03:32;9.40;99.90
4687;DHT22;2357;47.316;-1.348;2023-04-07T08:05:57;9.30;99.90
4687;DHT22;2357;47.316;-1.348;2023-04-07T08:08:23;9.40;99.90
4687;DHT22;2357;47.316;-1.348;2023-04-07T08:10:48;9.00;99.90
4687;DHT22;2357;47.316;-1.348;2023-04-07T08:13:14;9.10;99.90
4687;DHT22;2357;47.316;-1.348;2023-04-07T08:15:40;9.40;99.90
4687;DHT22;2357;47.316;-1.348;2023-04-07T08:18:06;9.50;99.90
4687;DHT22;2357;47.316;-1.348;2023-04-07T08:20:32;9.60;99.90
4687;DHT22;2357;47.316;-1.348;2023-04-07T08:22:58;9.70;99.90
4687;DHT22;2357;47.316;-1.348;2023-04-07T08:25:24;9.70;99.90
4687;DHT22;2357;47.316;-1.348;2023-04-07T08:27:50;9.90;99.90
4687;DHT22;2357;47.316;-1.348;2023-04-07T08:30:15;10.10;99.90
4687;DHT22;2357;47.316;-1.348;2023-04-07T08:32:43;10.00;99.90
4687;DHT22;2357;47.316;-1.348;2023-04-07T08:35:10;10.10;99.90
4687;DHT22;2357;47.316;-1.348;2023-04-07T08:37:36;10.40;99.90
4687;DHT22;2357;47.316;-1.348;2023-04-07T08:40:03;10.40;99.90
4687;DHT22;2357;47.316;-1.348;2023-04-07T08:42:31;10.40;99.90
4687;DHT22;2357;47.316;-1.348;2023-04-07T08:45:04;10.30;99.90
4687;DHT22;2357;47.316;-1.348;2023-04-07T08:47:33;10.40;99.90
4687;DHT22;2357;47.316;-1.348;2023-04-07T08:50:05;10.30;99.90
4687;DHT22;2357;47.316;-1.348;2023-04-07T08:52:43;10.40;99.90
4687;DHT22;2357;47.316;-1.348;2023-04-07T08:55:10;10.40;99.90
4687;DHT22;2357;47.316;-1.348;2023-04-07T08:57:36;10.50;99.90
4687;DHT22;2357;47.316;-1.348;2023-04-07T09:00:02;10.60;99.90
4687;DHT22;2357;47.316;-1.348;2023-04-07T09:02:38;10.50;99.90
4687;DHT22;2357;47.316;-1.348;2023-04-07T09:05:06;10.70;99.90
4687;DHT22;2357;47.316;-1.348;2023-04-07T09:07:34;10.70;99.90
4687;DHT22;2357;47.316;-1.348;2023-04-07T09:10:00;10.60;99.90
4687;DHT22;2357;47.316;-1.348;2023-04-07T09:12:29;10.70;99.90
4687;DHT22;2357;47.316;-1.348;2023-04-07T09:14:56;10.80;99.90
4687;DHT22;2357;47.316;-1.348;2023-04-07T09:17:21;10.70;99.90
4687;DHT22;2357;47.316;-1.348;2023-04-07T09:19:47;10.80;99.90
4687;DHT22;2357;47.316;-1.348;2023-04-07T09:22:13;10.70;99.90
4687;DHT22;2357;47.316;-1.348;2023-04-07T09:24:40;10.70;99.90
4687;DHT22;2357;47.316;-1.348;2023-04-07T09:27:13;10.80;99.90
4687;DHT22;2357;47.316;-1.348;2023-04-07T09:29:41;10.90;99.90
4687;DHT22;2357;47.316;-1.348;2023-04-07T09:32:07;10.80;99.90
4687;DHT22;2357;47.316;-1.348;2023-04-07T09:34:36;10.80;99.90
4687;DHT22;2357;47.316;-1.348;2023-04-07T09:37:02;10.40;99.90
4687;DHT22;2357;47.316;-1.348;2023-04-07T09:39:28;10.60;99.90
4687;DHT22;2357;47.316;-1.348;2023-04-07T09:41:54;10.70;99.90
4687;DHT22;2357;47.316;-1.348;2023-04-07T09:44:24;10.70;99.90
4687;DHT22;2357;47.316;-1.348;2023-04-07T09:46:54;10.60;99.90
4687;DHT22;2357;47.316;-1.348;2023-04-07T09:49:21;10.50;99.90
4687;DHT22;2357;47.316;-1.348;2023-04-07T09:52:01;10.60;99.90
4687;DHT22;2357;47.316;-1.348;2023-04-07T09:54:32;10.80;99.90
4687;DHT22;2357;47.316;-1.348;2023-04-07T09:57:00;10.90;99.90
4687;DHT22;2357;47.316;-1.348;2023-04-07T09:59:30;10.90;99.90
4687;DHT22;2357;47.316;-1.348;2023-04-07T10:01:57;11.00;99.90
4687;DHT22;2357;47.316;-1.348;2023-04-07T10:04:23;11.10;99.90
4687;DHT22;2357;47.316;-1.348;2023-04-07T10:06:51;11.40;99.90
4687;DHT22;2357;47.316;-1.348;2023-04-07T10:09:17;11.50;99.90
4687;DHT22;2357;47.316;-1.348;2023-04-07T10:11:43;11.50;99.90
4687;DHT22;2357;47.316;-1.348;2023-04-07T10:14:10;11.60;99.90
4687;DHT22;2357;47.316;-1.348;2023-04-07T10:16:39;11.70;99.90
4687;DHT22;2357;47.316;-1.348;2023-04-07T10:19:07;11.70;99.90
4687;DHT22;2357;47.316;-1.348;2023-04-07T10:21:39;11.70;99.90
4687;DHT22;2357;47.316;-1.348;2023-04-07T10:24:18;11.90;99.90
4687;DHT22;2357;47.316;-1.348;2023-04-07T10:26:55;12.00;99.90
4687;DHT22;2357;47.316;-1.348;2023-04-07T10:29:23;12.10;99.90
4687;DHT22;2357;47.316;-1.348;2023-04-07T10:31:50;12.10;99.90
4687;DHT22;2357;47.316;-1.348;2023-04-07T10:34:16;12.20;99.90
4687;DHT22;2357;47.316;-1.348;2023-04-07T10:37:11;12.30;99.90
4687;DHT22;2357;47.316;-1.348;2023-04-07T10:39:38;12.50;99.90
4687;DHT22;2357;47.316;-1.348;2023-04-07T10:42:03;12.50;99.90
4687;DHT22;2357;47.316;-1.348;2023-04-07T10:47:07;12.40;99.90
4687;DHT22;2357;47.316;-1.348;2023-04-07T10:49:33;12.40;99.90
4687;DHT22;2357;47.316;-1.348;2023-04-07T10:52:21;12.60;99.90
4687;DHT22;2357;47.316;-1.348;2023-04-07T10:54:47;12.80;99.90
4687;DHT22;2357;47.316;-1.348;2023-04-07T10:57:32;12.80;99.90
4687;DHT22;2357;47.316;-1.348;2023-04-07T11:02:39;12.90;99.90
4687;DHT22;2357;47.316;-1.348;2023-04-07T11:05:05;13.20;99.90
4687;DHT22;2357;47.316;-1.348;2023-04-07T11:07:52;13.10;99.90
4687;DHT22;2357;47.316;-1.348;2023-04-07T11:10:19;12.90;99.90
4687;DHT22;2357;47.316;-1.348;2023-04-07T11:13:03;13.10;99.90
4687;DHT22;2357;47.316;-1.348;2023-04-07T11:15:29;13.40;99.90
4687;DHT22;2357;47.316;-1.348;2023-04-07T11:18:13;13.30;99.90
4687;DHT22;2357;47.316;-1.348;2023-04-07T11:20:58;13.20;99.90
4687;DHT22;2357;47.316;-1.348;2023-04-07T11:23:24;13.40;99.90
4687;DHT22;2357;47.316;-1.348;2023-04-07T11:25:58;13.70;99.90
4687;DHT22;2357;47.316;-1.348;2023-04-07T11:28:28;13.90;99.90
4687;DHT22;2357;47.316;-1.348;2023-04-07T11:30:54;13.80;99.90
4687;DHT22;2357;47.316;-1.348;2023-04-07T11:33:26;13.40;99.90
4687;DHT22;2357;47.316;-1.348;2023-04-07T11:35:55;13.60;99.90
4687;DHT22;2357;47.316;-1.348;2023-04-07T11:38:26;14.00;99.90
4687;DHT22;2357;47.316;-1.348;2023-04-07T11:40:53;14.20;99.90
4687;DHT22;2357;47.316;-1.348;2023-04-07T11:43:26;14.40;99.90
4687;DHT22;2357;47.316;-1.348;2023-04-07T11:46:12;14.50;99.90
4687;DHT22;2357;47.316;-1.348;2023-04-07T11:48:39;14.50;99.90
4687;DHT22;2357;47.316;-1.348;2023-04-07T11:51:06;14.80;99.90
4687;DHT22;2357;47.316;-1.348;2023-04-07T11:53:33;14.40;99.90
4687;DHT22;2357;47.316;-1.348;2023-04-07T11:56:04;14.30;99.90
4687;DHT22;2357;47.316;-1.348;2023-04-07T11:58:31;14.40;99.90
4687;DHT22;2357;47.316;-1.348;2023-04-07T12:00:59;14.70;99.90
4687;DHT22;2357;47.316;-1.348;2023-04-07T12:03:29;15.00;99.90
4687;DHT22;2357;47.316;-1.348;2023-04-07T12:05:55;15.20;99.90
4687;DHT22;2357;47.316;-1.348;2023-04-07T12:08:20;15.60;99.90
4687;DHT22;2357;47.316;-1.348;2023-04-07T12:11:04;15.50;99.90
4687;DHT22;2357;47.316;-1.348;2023-04-07T12:13:29;15.90;99.90
4687;DHT22;2357;47.316;-1.348;2023-04-07T12:15:57;15.60;99.90
4687;DHT22;2357;47.316;-1.348;2023-04-07T12:18:23;15.40;99.90
4687;DHT22;2357;47.316;-1.348;2023-04-07T12:20:49;15.80;99.90
4687;DHT22;2357;47.316;-1.348;2023-04-07T12:23:15;16.10;99.90
4687;DHT22;2357;47.316;-1.348;2023-04-07T12:25:41;16.20;99.90
4687;DHT22;2357;47.316;-1.348;2023-04-07T12:28:07;16.50;99.90
4687;DHT22;2357;47.316;-1.348;2023-04-07T12:30:32;16.40;99.90
4687;DHT22;2357;47.316;-1.348;2023-04-07T12:32:58;16.00;99.90
4687;DHT22;2357;47.316;-1.348;2023-04-07T12:35:24;15.40;99.90
4687;DHT22;2357;47.316;-1.348;2023-04-07T12:37:49;15.50;99.90
4687;DHT22;2357;47.316;-1.348;2023-04-07T12:40:17;15.90;99.90
4687;DHT22;2357;47.316;-1.348;2023-04-07T12:42:43;15.90;99.90
4687;DHT22;2357;47.316;-1.348;2023-04-07T12:45:08;16.00;99.90
4687;DHT22;2357;47.316;-1.348;2023-04-07T12:47:34;16.00;99.90
4687;DHT22;2357;47.316;-1.348;2023-04-07T12:50:00;15.80;99.90
4687;DHT22;2357;47.316;-1.348;2023-04-07T12:52:26;16.10;99.90
4687;DHT22;2357;47.316;-1.348;2023-04-07T12:54:52;16.50;99.90
4687;DHT22;2357;47.316;-1.348;2023-04-07T12:57:18;16.70;99.90
4687;DHT22;2357;47.316;-1.348;2023-04-07T12:59:44;17.00;99.90
4687;DHT22;2357;47.316;-1.348;2023-04-07T13:02:09;17.10;99.90
4687;DHT22;2357;47.316;-1.348;2023-04-07T13:04:38;16.80;99.90
4687;DHT22;2357;47.316;-1.348;2023-04-07T13:07:05;17.00;99.90
4687;DHT22;2357;47.316;-1.348;2023-04-07T13:09:30;16.90;99.90
4687;DHT22;2357;47.316;-1.348;2023-04-07T13:11:56;17.40;99.90
4687;DHT22;2357;47.316;-1.348;2023-04-07T13:14:22;17.80;99.90
4687;DHT22;2357;47.316;-1.348;2023-04-07T13:16:48;17.80;99.90
4687;DHT22;2357;47.316;-1.348;2023-04-07T13:19:13;18.20;99.90
4687;DHT22;2357;47.316;-1.348;2023-04-07T13:21:39;18.20;99.90
4687;DHT22;2357;47.316;-1.348;2023-04-07T13:24:05;18.40;99.90
4687;DHT22;2357;47.316;-1.348;2023-04-07T13:26:30;18.60;99.90
4687;DHT22;2357;47.316;-1.348;2023-04-07T13:28:56;18.60;99.90
4687;DHT22;2357;47.316;-1.348;2023-04-07T13:31:22;18.90;99.90
4687;DHT22;2357;47.316;-1.348;2023-04-07T13:33:48;18.80;99.90
4687;DHT22;2357;47.316;-1.348;2023-04-07T13:36:13;19.10;99.90
4687;DHT22;2357;47.316;-1.348;2023-04-07T13:38:39;18.50;99.90
4687;DHT22;2357;47.316;-1.348;2023-04-07T13:41:06;18.60;99.90
4687;DHT22;2357;47.316;-1.348;2023-04-07T13:43:32;18.70;99.90
4687;DHT22;2357;47.316;-1.348;2023-04-07T13:45:57;18.90;99.90
4687;DHT22;2357;47.316;-1.348;2023-04-07T13:48:23;18.80;99.90
4687;DHT22;2357;47.316;-1.348;2023-04-07T13:50:49;18.90;99.90
4687;DHT22;2357;47.316;-1.348;2023-04-07T13:53:14;18.90;99.90
4687;DHT22;2357;47.316;-1.348;2023-04-07T13:55:40;19.00;99.90
4687;DHT22;2357;47.316;-1.348;2023-04-07T13:58:06;18.90;99.90
4687;DHT22;2357;47.316;-1.348;2023-04-07T14:00:31;18.90;99.90
4687;DHT22;2357;47.316;-1.348;2023-04-07T14:02:59;19.10;99.90
4687;DHT22;2357;47.316;-1.348;2023-04-07T14:05:25;19.00;99.90
4687;DHT22;2357;47.316;-1.348;2023-04-07T14:07:51;18.70;99.90
4687;DHT22;2357;47.316;-1.348;2023-04-07T14:10:17;17.90;99.90
4687;DHT22;2357;47.316;-1.348;2023-04-07T14:12:42;17.60;99.90
4687;DHT22;2357;47.316;-1.348;2023-04-07T14:15:08;18.00;99.90
4687;DHT22;2357;47.316;-1.348;2023-04-07T14:17:34;18.40;99.90
4687;DHT22;2357;47.316;-1.348;2023-04-07T14:20:00;18.60;99.90
4687;DHT22;2357;47.316;-1.348;2023-04-07T14:22:25;18.90;99.90
4687;DHT22;2357;47.316;-1.348;2023-04-07T14:24:51;19.00;99.90
4687;DHT22;2357;47.316;-1.348;2023-04-07T14:27:16;18.30;99.90
4687;DHT22;2357;47.316;-1.348;2023-04-07T14:29:46;19.00;99.90
4687;DHT22;2357;47.316;-1.348;2023-04-07T14:32:12;19.10;99.90
4687;DHT22;2357;47.316;-1.348;2023-04-07T14:34:37;18.50;99.90
4687;DHT22;2357;47.316;-1.348;2023-04-07T14:37:03;18.60;99.90
4687;DHT22;2357;47.316;-1.348;2023-04-07T14:39:29;18.90;99.90
4687;DHT22;2357;47.316;-1.348;2023-04-07T14:41:54;18.90;99.90
4687;DHT22;2357;47.316;-1.348;2023-04-07T14:44:20;19.00;99.90
4687;DHT22;2357;47.316;-1.348;2023-04-07T14:46:46;19.10;99.90
4687;DHT22;2357;47.316;-1.348;2023-04-07T14:49:13;19.00;99.90
4687;DHT22;2357;47.316;-1.348;2023-04-07T14:51:39;19.10;99.90
4687;DHT22;2357;47.316;-1.348;2023-04-07T14:54:04;19.10;99.90
4687;DHT22;2357;47.316;-1.348;2023-04-07T14:56:30;19.00;99.90
4687;DHT22;2357;47.316;-1.348;2023-04-07T14:58:56;19.40;99.90
4687;DHT22;2357;47.316;-1.348;2023-04-07T15:01:22;19.40;99.90
4687;DHT22;2357;47.316;-1.348;2023-04-07T15:03:49;19.20;99.90
4687;DHT22;2357;47.316;-1.348;2023-04-07T15:06:15;19.30;99.90
4687;DHT22;2357;47.316;-1.348;2023-04-07T15:08:41;19.40;99.90
4687;DHT22;2357;47.316;-1.348;2023-04-07T15:11:07;19.40;99.90
4687;DHT22;2357;47.316;-1.348;2023-04-07T15:13:33;19.20;99.90
4687;DHT22;2357;47.316;-1.348;2023-04-07T15:16:13;19.50;99.90
4687;DHT22;2357;47.316;-1.348;2023-04-07T15:18:40;19.30;99.90
4687;DHT22;2357;47.316;-1.348;2023-04-07T15:21:10;19.40;99.90
4687;DHT22;2357;47.316;-1.348;2023-04-07T15:23:37;19.40;99.90
4687;DHT22;2357;47.316;-1.348;2023-04-07T15:26:04;19.30;99.90
4687;DHT22;2357;47.316;-1.348;2023-04-07T15:28:30;19.50;99.90
4687;DHT22;2357;47.316;-1.348;2023-04-07T15:30:55;19.50;99.90
4687;DHT22;2357;47.316;-1.348;2023-04-07T15:33:21;19.60;99.90
4687;DHT22;2357;47.316;-1.348;2023-04-07T15:35:47;19.50;99.90
4687;DHT22;2357;47.316;-1.348;2023-04-07T15:38:13;19.60;99.90
4687;DHT22;2357;47.316;-1.348;2023-04-07T15:40:39;19.40;99.90
4687;DHT22;2357;47.316;-1.348;2023-04-07T15:43:05;19.40;99.90
4687;DHT22;2357;47.316;-1.348;2023-04-07T15:45:31;19.60;99.90
4687;DHT22;2357;47.316;-1.348;2023-04-07T15:47:57;19.40;99.90
4687;DHT22;2357;47.316;-1.348;2023-04-07T15:50:23;19.40;99.90
4687;DHT22;2357;47.316;-1.348;2023-04-07T15:52:49;19.40;99.90
4687;DHT22;2357;47.316;-1.348;2023-04-07T15:55:15;19.60;99.90
4687;DHT22;2357;47.316;-1.348;2023-04-07T15:57:41;19.70;99.90
4687;DHT22;2357;47.316;-1.348;2023-04-07T16:00:07;19.70;99.90
4687;DHT22;2357;47.316;-1.348;2023-04-07T16:02:33;19.70;99.90